Time;durP1;ratioP1;P1;durP2;ratioP2;P2;SDS_P1;SDS_P2;PMS_P1;PMS_P2;Temp;Humidity;BMP_temperature;BMP_pressure;BME280_temperature;BME280_humidity;BME280_pressure;Samples;Min_cycle;Max_cycle;Signal;HPM_P1;HPM_P2
2022/01/21 00:02:15;;;;;;;17.55;3.72;;;3.10;99.90;;;;;;5098185;28;20044;-76
2022/01/21 00:04:43;;;;;;;18.70;3.58;;;3.10;99.90;;;;;;5098365;28;20052;-74
2022/01/21 00:07:10;;;;;;;10.63;3.70;;;3.10;99.90;;;;;;5081476;28;20790;-74
2022/01/21 00:09:40;;;;;;;14.55;3.67;;;3.10;99.90;;;;;;5066242;28;20059;-76
2022/01/21 00:12:08;;;;;;;14.02;3.58;;;3.10;99.90;;;;;;5064852;28;20443;-77
2022/01/21 00:14:36;;;;;;;13.35;4.13;;;3.10;99.90;;;;;;5066463;28;20479;-74
2022/01/21 00:17:04;;;;;;;16.98;3.72;;;3.10;99.90;;;;;;5047986;28;20044;-75
2022/01/21 00:19:38;;;;;;;14.93;3.53;;;3.10;99.90;;;;;;5064486;28;20064;-75
2022/01/21 00:30:31;;;;;;;13.05;3.20;;;3.10;99.90;;;;;;5064345;28;20052;-76
2022/01/21 00:32:59;;;;;;;18.05;3.60;;;3.20;99.90;;;;;;5063643;28;20056;-77
2022/01/21 00:35:27;;;;;;;15.65;3.85;;;3.10;99.90;;;;;;5063702;28;20056;-77
2022/01/21 00:37:55;;;;;;;17.00;3.63;;;3.10;99.90;;;;;;5068088;28;20040;-76
2022/01/21 00:40:24;;;;;;;19.02;3.33;;;3.10;99.90;;;;;;5047700;28;20036;-75
2022/01/21 00:43:11;;;;;;;11.65;3.40;;;3.20;99.90;;;;;;5033278;28;20084;-77
2022/01/21 00:45:39;;;;;;;12.93;3.20;;;3.10;99.90;;;;;;5078259;28;20055;-76
2022/01/21 00:48:07;;;;;;;17.70;3.30;;;3.10;99.90;;;;;;5085626;28;20047;-77
2022/01/21 00:50:35;;;;;;;17.05;3.25;;;3.10;99.90;;;;;;5084202;28;20040;-76
2022/01/21 00:53:03;;;;;;;13.68;3.25;;;3.20;99.90;;;;;;5084690;28;20048;-75
2022/01/21 00:55:31;;;;;;;14.77;3.00;;;3.10;99.90;;;;;;5085400;28;20696;-74
2022/01/21 00:57:58;;;;;;;13.77;3.20;;;3.20;99.90;;;;;;5085377;28;20062;-75
2022/01/21 01:00:27;;;;;;;12.60;3.10;;;3.10;99.90;;;;;;5085593;28;20488;-74
2022/01/21 01:02:55;;;;;;;11.68;3.33;;;3.10;99.90;;;;;;5084047;28;20048;-75
2022/01/21 01:05:24;;;;;;;19.67;3.65;;;3.10;99.90;;;;;;5084262;28;20526;-75
2022/01/21 01:07:53;;;;;;;13.82;3.47;;;3.20;99.90;;;;;;5081578;28;20420;-75
2022/01/21 01:10:36;;;;;;;15.65;3.38;;;3.00;99.90;;;;;;5062359;28;20045;-74
2022/01/21 01:21:25;;;;;;;15.23;3.63;;;2.60;99.90;;;;;;5063898;28;20952;-77
2022/01/21 01:29:25;;;;;;;13.07;3.63;;;2.30;99.90;;;;;;5068343;28;20448;-74
2022/01/21 01:31:53;;;;;;;10.20;3.10;;;2.20;99.90;;;;;;5084105;28;20059;-74
2022/01/21 01:34:21;;;;;;;13.45;3.00;;;2.20;99.90;;;;;;5076323;28;20060;-75
2022/01/21 01:36:48;;;;;;;11.40;3.15;;;2.20;99.90;;;;;;5063550;28;20064;-74
2022/01/21 01:42:10;;;;;;;16.52;2.92;;;2.00;99.90;;;;;;5063080;28;20413;-76
2022/01/21 01:50:34;;;;;;;12.02;3.17;;;1.80;99.90;;;;;;5086794;28;20048;-74
2022/01/21 01:53:03;;;;;;;13.90;3.05;;;1.70;99.90;;;;;;5087573;28;20514;-76
2022/01/21 01:55:31;;;;;;;12.10;3.25;;;1.60;99.90;;;;;;5076871;28;20079;-75
2022/01/21 01:57:58;;;;;;;14.50;3.25;;;1.60;99.90;;;;;;5067818;28;20412;-78
2022/01/21 02:00:26;;;;;;;13.73;3.00;;;1.50;99.90;;;;;;5068443;28;20068;-78
2022/01/21 02:02:54;;;;;;;12.48;3.10;;;1.50;99.90;;;;;;5067113;28;20052;-78
2022/01/21 02:05:22;;;;;;;12.07;2.90;;;1.40;99.90;;;;;;5050298;28;20157;-77
2022/01/21 02:07:49;;;;;;;9.82;2.63;;;1.20;99.90;;;;;;5083204;28;20056;-78
2022/01/21 02:10:17;;;;;;;9.93;2.83;;;1.20;99.90;;;;;;5066168;28;20052;-78
2022/01/21 02:12:45;;;;;;;16.35;2.97;;;1.10;99.90;;;;;;5086656;28;20044;-74
2022/01/21 02:15:13;;;;;;;14.52;2.75;;;1.10;99.90;;;;;;5070361;28;20060;-76
2022/01/21 02:22:57;;;;;;;16.45;3.30;;;0.90;99.90;;;;;;5086372;28;20040;-76
2022/01/21 02:25:24;;;;;;;9.77;2.75;;;0.90;99.90;;;;;;5087139;28;20083;-74
2022/01/21 02:27:58;;;;;;;18.08;2.83;;;0.90;99.90;;;;;;5086396;28;20736;-75
2022/01/21 02:30:26;;;;;;;8.38;2.70;;;0.70;99.90;;;;;;5069761;28;20063;-77
2022/01/21 02:33:00;;;;;;;14.57;3.00;;;0.70;99.90;;;;;;5071364;28;20047;-77
2022/01/21 02:35:28;;;;;;;18.33;3.15;;;0.60;99.90;;;;;;5086651;28;20059;-77
2022/01/21 02:37:55;;;;;;;11.18;2.75;;;0.50;99.90;;;;;;5087057;28;20051;-78
2022/01/21 02:40:23;;;;;;;9.48;3.05;;;0.50;99.90;;;;;;5085767;28;20059;-77
2022/01/21 02:42:51;;;;;;;9.75;2.88;;;0.40;99.90;;;;;;5087706;28;20048;-78
2022/01/21 02:45:19;;;;;;;8.10;2.60;;;0.40;99.90;;;;;;5074562;28;20872;-75
2022/01/21 02:47:47;;;;;;;16.65;3.20;;;0.30;99.90;;;;;;5067221;28;20041;-77
2022/01/21 02:50:16;;;;;;;;;;;0.20;99.90;;;;;;5034876;28;20049;-77
2022/01/21 02:55:32;;;;;;;11.85;2.97;;;0.10;99.90;;;;;;5086637;28;20047;-75
2022/01/21 02:57:59;;;;;;;15.15;3.13;;;0.00;99.90;;;;;;5088207;28;20044;-76
2022/01/21 03:00:27;;;;;;;16.92;3.42;;;0.00;99.90;;;;;;5086891;28;20043;-75
2022/01/21 03:02:55;;;;;;;15.25;3.63;;;-0.10;99.90;;;;;;5088098;28;20048;-77
2022/01/21 03:05:23;;;;;;;14.90;3.20;;;-0.20;99.90;;;;;;5085961;28;20047;-77
2022/01/21 03:07:51;;;;;;;10.35;3.45;;;-0.20;99.90;;;;;;5055921;28;20048;-76
2022/01/21 03:10:20;;;;;;;11.85;3.38;;;-0.20;99.90;;;;;;5066862;28;20382;-78
2022/01/21 03:12:48;;;;;;;18.95;3.40;;;-0.30;99.90;;;;;;5082961;28;20049;-74
2022/01/21 03:15:15;;;;;;;;;;;-0.30;99.90;;;;;;5095561;28;20056;-76
2022/01/21 03:17:43;;;;;;;12.85;3.30;;;-0.40;99.90;;;;;;5053047;28;19931;-74
2022/01/21 03:20:11;;;;;;;12.32;3.15;;;-0.40;99.90;;;;;;5070180;28;20074;-77
2022/01/21 03:22:40;;;;;;;12.05;3.28;;;-0.40;99.90;;;;;;5086738;28;20066;-78
2022/01/21 03:25:09;;;;;;;13.30;3.72;;;-0.40;99.90;;;;;;5086766;28;20055;-78
2022/01/21 03:27:36;;;;;;;13.20;3.20;;;-0.40;99.90;;;;;;5086493;28;20052;-76
2022/01/21 03:30:08;;;;;;;13.30;3.28;;;-0.30;99.90;;;;;;5086118;28;20084;-77
2022/01/21 03:32:50;;;;;;;10.95;3.20;;;-0.40;99.90;;;;;;5086038;28;20048;-78
2022/01/21 03:35:18;;;;;;;13.75;3.33;;;-0.20;99.90;;;;;;5086335;28;20044;-77
2022/01/21 03:37:47;;;;;;;20.05;3.80;;;-0.30;99.90;;;;;;5083255;28;20720;-75
2022/01/21 03:40:21;;;;;;;14.25;3.50;;;-0.20;99.90;;;;;;5084825;28;20052;-78
2022/01/21 03:43:07;;;;;;;15.60;3.90;;;-0.10;99.90;;;;;;5071693;28;20048;-76
2022/01/21 03:45:42;;;;;;;18.50;3.70;;;-0.10;99.90;;;;;;5068925;28;20370;-77
2022/01/21 03:48:10;;;;;;;15.10;3.75;;;-0.10;99.90;;;;;;5084694;28;20040;-76
2022/01/21 03:50:38;;;;;;;17.42;3.95;;;-0.10;99.90;;;;;;5069399;28;20048;-74
2022/01/21 03:53:06;;;;;;;14.88;3.80;;;-0.10;99.90;;;;;;5085946;28;20678;-74
2022/01/21 03:55:35;;;;;;;17.73;4.25;;;-0.10;99.90;;;;;;5051987;28;20048;-75
2022/01/21 03:58:05;;;;;;;17.65;3.92;;;-0.10;99.90;;;;;;5069303;28;20052;-73
2022/01/21 04:00:47;;;;;;;14.25;4.00;;;0.00;99.90;;;;;;5076578;28;20864;-76
2022/01/21 04:03:16;;;;;;;13.55;3.92;;;-0.10;99.90;;;;;;5065116;28;20048;-76
2022/01/21 04:05:47;;;;;;;15.25;4.05;;;0.00;99.90;;;;;;5065606;28;20053;-76
2022/01/21 04:08:17;;;;;;;13.25;4.38;;;0.10;99.90;;;;;;5064940;28;20056;-74
2022/01/21 04:10:53;;;;;;;17.00;4.28;;;0.10;99.90;;;;;;5065289;28;20394;-74
2022/01/21 04:13:27;;;;;;;13.35;4.03;;;0.10;99.90;;;;;;5082007;28;20040;-77
2022/01/21 04:16:00;;;;;;;14.15;3.80;;;0.30;99.90;;;;;;5083377;28;20051;-78
2022/01/21 04:18:32;;;;;;;10.70;3.35;;;0.30;99.90;;;;;;5085972;28;20507;-77
2022/01/21 04:21:02;;;;;;;17.95;3.90;;;0.40;99.90;;;;;;5069881;28;20047;-75
2022/01/21 04:23:32;;;;;;;15.60;3.90;;;0.40;99.90;;;;;;5068648;28;20044;-78
2022/01/21 04:26:01;;;;;;;20.30;4.30;;;0.30;99.90;;;;;;5068942;28;20489;-77
2022/01/21 04:28:29;;;;;;;13.27;3.40;;;0.30;99.90;;;;;;5068883;28;20063;-73
2022/01/21 04:31:01;;;;;;;13.30;3.75;;;0.30;99.90;;;;;;5085734;28;20051;-73
2022/01/21 04:33:42;;;;;;;11.50;3.75;;;0.20;99.90;;;;;;5085394;28;20048;-78
2022/01/21 04:36:09;;;;;;;15.35;3.72;;;0.10;99.90;;;;;;5050915;28;20516;-77
2022/01/21 04:38:39;;;;;;;12.05;3.80;;;0.10;99.90;;;;;;5076505;28;20051;-77
2022/01/21 04:41:52;;;;;;;14.57;3.83;;;0.00;99.90;;;;;;5084853;28;20055;-79
2022/01/21 04:49:40;;;;;;;15.50;4.07;;;-0.20;99.90;;;;;;5086544;28;20055;-77
2022/01/21 04:52:09;;;;;;;16.70;4.50;;;-0.30;99.90;;;;;;5068720;28;20051;-78
2022/01/21 04:54:55;;;;;;;16.60;4.13;;;-0.30;99.90;;;;;;5085880;28;20048;-78
2022/01/21 04:57:25;;;;;;;14.77;4.15;;;-0.40;99.90;;;;;;5085392;28;20622;-74
2022/01/21 04:59:53;;;;;;;11.98;3.72;;;-0.50;99.90;;;;;;5085130;28;20055;-78
2022/01/21 05:02:24;;;;;;;13.50;4.18;;;-0.50;99.90;;;;;;5084622;28;20048;-77
2022/01/21 05:04:52;;;;;;;17.48;4.00;;;-0.60;99.90;;;;;;5084976;28;20118;-78
2022/01/21 05:07:23;;;;;;;19.15;4.78;;;-0.60;99.90;;;;;;5085120;28;20374;-77
2022/01/21 05:09:51;;;;;;;12.32;3.63;;;-0.70;99.90;;;;;;5067421;28;20051;-74
2022/01/21 05:12:22;;;;;;;11.93;4.00;;;-0.70;99.90;;;;;;5084895;28;20048;-74
2022/01/21 05:17:29;;;;;;;13.68;4.10;;;-0.80;99.90;;;;;;5085345;28;20048;-73
2022/01/21 05:19:57;;;;;;;13.82;4.22;;;-0.80;99.90;;;;;;5084123;28;20044;-74
2022/01/21 05:22:36;;;;;;;22.45;4.50;;;-0.80;99.90;;;;;;5069619;28;20052;-76
2022/01/21 05:25:04;;;;;;;17.10;4.43;;;-0.80;99.90;;;;;;5066068;28;20067;-77
2022/01/21 05:27:33;;;;;;;21.40;4.40;;;-0.80;99.90;;;;;;5068271;28;20048;-77
2022/01/21 05:30:01;;;;;;;14.25;3.80;;;-0.80;99.90;;;;;;5050834;28;20504;-76
2022/01/21 05:32:38;;;;;;;14.70;4.17;;;-0.80;99.90;;;;;;5068581;28;20044;-78
2022/01/21 05:35:14;;;;;;;16.75;4.68;;;-0.80;99.90;;;;;;5081964;28;20303;-74
2022/01/21 05:38:09;;;;;;;11.88;4.07;;;-0.80;99.90;;;;;;5059420;28;20061;-75
2022/01/21 05:40:37;;;;;;;21.83;5.07;;;-0.90;99.90;;;;;;5064575;28;20044;-73
2022/01/21 05:43:13;;;;;;;14.35;4.25;;;-0.90;99.90;;;;;;5064659;28;20041;-78
2022/01/21 05:49:14;;;;;;;14.80;4.32;;;-1.00;99.90;;;;;;5060132;28;20071;-78
2022/01/21 05:52:07;;;;;;;13.60;4.20;;;-1.00;99.90;;;;;;5083192;28;20044;-74
2022/01/21 05:54:56;;;;;;;15.38;4.28;;;-1.10;99.90;;;;;;5070550;28;20051;-76
2022/01/21 05:58:02;;;;;;;18.30;4.53;;;-1.10;99.90;;;;;;5066924;28;20055;-77
2022/01/21 06:00:35;;;;;;;12.98;4.18;;;-1.00;99.90;;;;;;5067428;28;20072;-76
2022/01/21 06:03:04;;;;;;;15.43;4.70;;;-1.10;99.90;;;;;;5081789;28;20040;-78
2022/01/21 06:05:33;;;;;;;19.02;4.80;;;-1.20;99.90;;;;;;5085724;28;20048;-77
2022/01/21 06:08:03;;;;;;;14.38;4.45;;;-1.20;99.90;;;;;;5066630;28;20515;-77
2022/01/21 06:10:31;;;;;;;18.08;4.88;;;-1.20;99.90;;;;;;5083021;28;20048;-79
2022/01/21 06:12:59;;;;;;;;;;;-1.20;99.90;;;;;;5066446;28;20047;-76
2022/01/21 06:15:26;;;;;;;;;;;-1.30;99.90;;;;;;5084199;28;20458;-75
2022/01/21 06:17:54;;;;;;;14.40;4.45;;;-1.30;99.90;;;;;;5083838;28;20324;-74
2022/01/21 06:20:22;;;;;;;;;;;-1.30;99.90;;;;;;5084440;28;20048;-77
2022/01/21 06:22:50;;;;;;;18.33;4.95;;;-1.40;99.90;;;;;;5082378;28;19931;-79
2022/01/21 06:25:18;;;;;;;16.23;4.65;;;-1.30;99.90;;;;;;5083793;28;20794;-76
2022/01/21 06:27:46;;;;;;;17.85;5.35;;;-1.40;99.90;;;;;;5085392;28;20476;-77
2022/01/21 06:30:14;;;;;;;18.95;5.32;;;-1.40;99.90;;;;;;5084820;28;20052;-75
2022/01/21 06:32:42;;;;;;;19.83;5.45;;;-1.40;99.90;;;;;;5077108;28;20037;-74
2022/01/21 06:35:12;;;;;;;15.48;5.65;;;-1.40;99.90;;;;;;5067188;28;20043;-74
2022/01/21 06:37:40;;;;;;;16.30;5.75;;;-1.40;99.90;;;;;;5067957;28;20052;-77
2022/01/21 06:40:08;;;;;;;;;;;-1.40;99.90;;;;;;5086044;28;20052;-78
2022/01/21 06:42:37;;;;;;;17.20;5.00;;;-1.40;99.90;;;;;;5086451;28;19923;-78
2022/01/21 06:45:05;;;;;;;16.05;5.38;;;-1.40;99.90;;;;;;5069814;28;20056;-77
2022/01/21 06:47:33;;;;;;;22.73;6.18;;;-1.40;99.90;;;;;;5087791;28;20044;-76
2022/01/21 06:50:01;;;;;;;18.42;5.28;;;-1.50;99.90;;;;;;5086613;28;20048;-78
2022/01/21 06:52:29;;;;;;;;;;;-1.50;99.90;;;;;;5087577;28;20047;-76
2022/01/21 06:54:58;;;;;;;19.92;5.05;;;-1.50;99.90;;;;;;5087063;28;19934;-75
2022/01/21 06:57:27;;;;;;;19.63;5.63;;;-1.60;99.90;;;;;;5085516;28;20486;-74
2022/01/21 06:59:56;;;;;;;13.85;5.22;;;-1.50;99.90;;;;;;5085954;28;20048;-76
2022/01/21 07:02:24;;;;;;;23.13;5.68;;;-1.60;99.90;;;;;;5088001;28;20036;-75
2022/01/21 07:04:52;;;;;;;;;;;-1.60;99.90;;;;;;5088375;28;20044;-77
2022/01/21 07:07:21;;;;;;;13.68;5.72;;;-1.60;99.90;;;;;;5086900;28;20297;-74
2022/01/21 07:09:48;;;;;;;24.50;7.07;;;-1.70;99.90;;;;;;5078472;28;20055;-73
2022/01/21 07:12:16;;;;;;;13.48;6.07;;;-1.70;99.90;;;;;;5082779;28;20048;-74
2022/01/21 07:14:44;;;;;;;18.75;6.43;;;-1.70;99.90;;;;;;5083408;28;20052;-73
2022/01/21 07:17:12;;;;;;;22.15;6.78;;;-1.70;99.90;;;;;;5084407;28;20048;-77
2022/01/21 07:19:40;;;;;;;;;;;-1.70;99.90;;;;;;5087497;28;20036;-78
2022/01/21 07:22:07;;;;;;;15.38;6.22;;;-1.70;99.90;;;;;;5087379;28;19924;-77
2022/01/21 07:24:35;;;;;;;17.90;6.50;;;-1.70;99.90;;;;;;5086356;28;20056;-74
2022/01/21 07:27:03;;;;;;;16.98;6.32;;;-1.70;99.90;;;;;;5086299;28;20055;-77
2022/01/21 07:29:31;;;;;;;22.83;7.05;;;-1.70;99.90;;;;;;5086601;28;20051;-77
2022/01/21 07:31:59;;;;;;;19.58;7.22;;;-1.70;99.90;;;;;;5055631;28;20040;-79
2022/01/21 07:34:27;;;;;;;;;;;-1.70;99.90;;;;;;5066060;28;20053;-77
2022/01/21 07:36:55;;;;;;;;;;;-1.70;99.90;;;;;;5065909;28;19931;-74
2022/01/21 07:39:22;;;;;;;18.10;6.78;;;-1.70;99.90;;;;;;5079611;28;19920;-79
2022/01/21 07:41:51;;;;;;;20.85;7.18;;;-1.70;99.90;;;;;;5067998;28;20051;-76
2022/01/21 07:44:22;;;;;;;14.63;6.65;;;-1.70;99.90;;;;;;5083077;28;20040;-78
2022/01/21 07:46:50;;;;;;;21.58;7.28;;;-1.70;99.90;;;;;;5085790;28;20047;-78
2022/01/21 07:49:17;;;;;;;17.58;7.18;;;-1.70;99.90;;;;;;5098291;28;20459;-77
2022/01/21 07:51:45;;;;;;;24.55;7.47;;;-1.70;99.90;;;;;;5084676;28;20682;-78
2022/01/21 07:54:13;;;;;;;18.65;7.10;;;-1.70;99.90;;;;;;5082191;28;20044;-79
2022/01/21 07:56:41;;;;;;;20.88;7.70;;;-1.70;99.90;;;;;;5082826;28;20051;-78
2022/01/21 07:59:13;;;;;;;23.17;7.50;;;-1.70;99.90;;;;;;5083585;28;20051;-75
2022/01/21 08:01:42;;;;;;;15.50;6.85;;;-1.70;99.90;;;;;;5079968;28;20758;-75
2022/01/21 08:04:10;;;;;;;19.10;7.00;;;-1.70;99.90;;;;;;5085262;28;20047;-77
2022/01/21 08:06:39;;;;;;;17.38;6.68;;;-1.70;99.90;;;;;;5066742;28;20048;-79
2022/01/21 08:09:07;;;;;;;;;;;-1.60;99.90;;;;;;5066325;28;20063;-76
2022/01/21 08:11:35;;;;;;;17.90;6.22;;;-1.60;99.90;;;;;;5083863;28;19931;-76
2022/01/21 08:14:03;;;;;;;;;;;-1.50;99.90;;;;;;5075076;28;20032;-77
2022/01/21 08:16:33;;;;;;;22.35;6.10;;;-1.50;99.90;;;;;;5084510;28;19924;-76
2022/01/21 08:19:03;;;;;;;20.48;7.03;;;-1.50;99.90;;;;;;5082881;28;20451;-75
2022/01/21 08:21:31;;;;;;;21.23;6.88;;;-1.40;99.90;;;;;;5084292;28;20051;-77
2022/01/21 08:24:03;;;;;;;24.27;7.63;;;-1.40;99.90;;;;;;5081605;28;20060;-78
2022/01/21 08:26:31;;;;;;;25.10;7.57;;;-1.40;99.90;;;;;;5086753;28;20056;-75
2022/01/21 08:29:01;;;;;;;19.17;7.45;;;-1.30;99.90;;;;;;5068333;28;20370;-74
2022/01/21 08:31:29;;;;;;;23.08;8.27;;;-1.30;99.90;;;;;;5073214;28;20492;-75
2022/01/21 08:33:57;;;;;;;21.48;7.25;;;-1.20;99.90;;;;;;5031735;28;20060;-78
2022/01/21 08:36:26;;;;;;;25.00;7.75;;;-1.10;99.90;;;;;;5065689;28;20056;-77
2022/01/21 08:38:54;;;;;;;20.35;7.88;;;-1.10;99.90;;;;;;5084582;28;20043;-74
2022/01/21 08:41:22;;;;;;;24.27;8.45;;;-1.00;99.90;;;;;;5084713;28;20044;-75
2022/01/21 08:43:50;;;;;;;25.80;7.60;;;-0.90;99.90;;;;;;5085757;28;20063;-78
2022/01/21 08:46:17;;;;;;;28.80;7.72;;;-0.80;99.90;;;;;;5064228;28;20052;-76
2022/01/21 08:48:45;;;;;;;21.25;7.55;;;-0.70;99.90;;;;;;5072522;28;20044;-75
2022/01/21 08:51:19;;;;;;;22.63;7.72;;;-0.70;99.90;;;;;;5082899;28;20117;-77
2022/01/21 08:53:47;;;;;;;25.80;8.43;;;-0.60;99.90;;;;;;5084134;28;20063;-75
2022/01/21 08:59:01;;;;;;;22.38;8.18;;;-0.50;99.90;;;;;;5058708;28;20349;-73
2022/01/21 09:01:28;;;;;;;;;;;-0.50;99.90;;;;;;5046573;28;20518;-77
2022/01/21 09:03:57;;;;;;;26.38;8.00;;;-0.40;99.90;;;;;;5032852;28;20458;-77
2022/01/21 09:06:28;;;;;;;23.20;8.00;;;-0.40;99.90;;;;;;5037075;28;20041;-77
2022/01/21 09:08:57;;;;;;;26.70;8.15;;;-0.30;99.90;;;;;;5044148;28;20045;-81
2022/01/21 09:11:26;;;;;;;28.00;8.48;;;-0.20;99.90;;;;;;5024076;28;20046;-75
2022/01/21 09:13:54;;;;;;;23.63;8.75;;;-0.10;99.90;;;;;;5059388;28;20045;-77
2022/01/21 09:16:23;;;;;;;23.27;8.23;;;0.00;99.90;;;;;;5043061;28;20045;-76
2022/01/21 09:18:54;;;;;;;21.55;8.20;;;0.00;99.90;;;;;;5044133;28;20052;-75
2022/01/21 09:21:36;;;;;;;24.63;8.85;;;0.10;99.90;;;;;;5046470;28;20056;-74
2022/01/21 09:24:05;;;;;;;26.05;8.23;;;0.20;99.90;;;;;;5045032;28;20040;-72
2022/01/21 09:26:33;;;;;;;22.25;8.82;;;0.30;99.90;;;;;;5041150;28;20496;-76
2022/01/21 09:29:03;;;;;;;;;;;0.30;99.90;;;;;;5038709;28;20056;-77
2022/01/21 09:31:32;;;;;;;24.98;8.80;;;0.40;99.90;;;;;;5032486;28;20003;-76
2022/01/21 09:34:20;;;;;;;23.92;8.45;;;0.50;99.90;;;;;;5045244;28;20045;-77
2022/01/21 09:36:48;;;;;;;24.65;8.68;;;0.50;99.90;;;;;;5033332;28;20050;-78
2022/01/21 09:39:16;;;;;;;27.00;8.27;;;0.70;99.90;;;;;;5044567;28;20041;-76
2022/01/21 09:41:45;;;;;;;23.70;8.48;;;0.80;99.90;;;;;;5037013;28;20143;-75
2022/01/21 09:44:15;;;;;;;27.63;9.60;;;0.80;99.90;;;;;;5037563;28;20049;-75
2022/01/21 09:46:47;;;;;;;22.95;8.93;;;0.90;99.90;;;;;;5038723;28;20053;-79
2022/01/21 09:49:27;;;;;;;26.85;8.68;;;1.00;99.90;;;;;;5030332;28;20045;-78
2022/01/21 09:52:00;;;;;;;24.05;9.38;;;1.00;99.90;;;;;;5046032;28;20037;-77
2022/01/21 09:54:32;;;;;;;24.58;8.80;;;1.10;99.90;;;;;;5042127;28;20045;-77
2022/01/21 09:57:01;;;;;;;25.17;8.57;;;1.20;99.90;;;;;;5045499;28;20468;-77
2022/01/21 09:59:36;;;;;;;22.10;8.75;;;1.30;99.90;;;;;;5048389;28;20049;-76
2022/01/21 10:02:07;;;;;;;19.75;7.55;;;1.40;99.90;;;;;;5042192;28;20175;-77
2022/01/21 10:04:44;;;;;;;33.80;9.02;;;1.50;99.90;;;;;;5044555;28;20170;-76
2022/01/21 10:07:17;;;;;;;26.58;8.63;;;1.60;99.90;;;;;;5045442;28;20088;-75
2022/01/21 10:09:47;;;;;;;28.45;8.88;;;1.70;99.90;;;;;;5045490;28;20064;-76
2022/01/21 10:12:16;;;;;;;24.10;8.43;;;1.70;99.90;;;;;;5048587;28;20048;-77
2022/01/21 10:14:45;;;;;;;22.00;8.52;;;1.80;99.90;;;;;;5048973;28;20492;-79
2022/01/21 10:17:14;;;;;;;24.83;9.30;;;2.00;99.90;;;;;;5034391;28;20057;-77
2022/01/21 10:19:48;;;;;;;22.15;8.95;;;2.00;99.90;;;;;;5057298;28;20061;-77
2022/01/21 10:22:21;;;;;;;26.35;8.45;;;2.20;99.90;;;;;;5043067;28;20049;-74
2022/01/21 10:24:59;;;;;;;25.50;8.55;;;2.50;99.90;;;;;;5048206;28;20044;-75
2022/01/21 10:27:32;;;;;;;;;;;2.70;99.90;;;;;;5036064;28;20042;-76
2022/01/21 10:30:00;;;;;;;22.15;7.80;;;3.00;99.90;;;;;;5034482;28;19944;-82
2022/01/21 10:32:39;;;;;;;24.98;8.32;;;3.50;99.90;;;;;;5050230;28;20037;-81
2022/01/21 10:35:34;;;;;;;17.95;7.45;;;4.10;99.90;;;;;;5051730;28;20453;-80
2022/01/21 10:38:16;;;;;;;26.33;8.27;;;4.90;99.90;;;;;;5020821;28;20405;-82
2022/01/21 10:40:45;;;;;;;22.15;8.82;;;5.70;99.90;;;;;;5031315;28;20056;-75
2022/01/21 10:43:15;;;;;;;24.75;9.40;;;6.50;99.90;;;;;;5049107;28;20064;-75
2022/01/21 10:45:53;;;;;;;21.98;9.98;;;7.00;99.90;;;;;;5041971;28;20041;-74
2022/01/21 10:49:03;;;;;;;29.60;11.30;;;7.30;99.90;;;;;;5047626;28;20037;-74
2022/01/21 10:51:34;;;;;;;26.90;10.68;;;7.20;99.90;;;;;;5045818;28;20072;-74
2022/01/21 10:54:14;;;;;;;20.40;9.50;;;6.80;99.90;;;;;;5029078;28;20056;-73
2022/01/21 10:57:03;;;;;;;26.10;9.30;;;6.50;99.90;;;;;;5034492;28;20041;-74
2022/01/21 10:59:53;;;;;;;25.67;8.75;;;6.20;99.90;;;;;;5046712;28;20051;-73
2022/01/21 11:02:27;;;;;;;20.30;7.90;;;5.80;99.90;;;;;;5046558;28;20057;-73
2022/01/21 11:04:57;;;;;;;20.23;8.52;;;5.50;99.90;;;;;;5046294;28;20048;-73
2022/01/21 11:07:49;;;;;;;23.30;8.40;;;5.30;99.90;;;;;;5043629;28;20049;-74
2022/01/21 11:10:49;;;;;;;17.73;7.82;;;5.10;99.90;;;;;;5045830;28;20052;-73
2022/01/21 11:13:21;;;;;;;20.70;8.00;;;4.90;99.90;;;;;;5046469;28;20056;-73
2022/01/21 11:15:55;;;;;;;19.58;7.78;;;4.80;99.90;;;;;;5056656;28;20053;-74
2022/01/21 11:18:57;;;;;;;24.45;7.88;;;4.70;99.90;;;;;;5039638;28;20064;-74
2022/01/21 11:21:38;;;;;;;22.05;7.53;;;4.60;99.90;;;;;;5027135;28;20041;-75
2022/01/21 11:24:08;;;;;;;25.13;7.30;;;4.50;99.90;;;;;;5046871;28;20045;-74
2022/01/21 11:27:06;;;;;;;25.42;8.27;;;4.40;99.90;;;;;;5043462;28;20072;-74
2022/01/21 11:29:35;;;;;;;18.48;7.60;;;4.40;99.90;;;;;;5038166;28;20044;-74
2022/01/21 11:32:03;;;;;;;27.42;8.40;;;4.40;99.90;;;;;;5044764;28;20046;-73
2022/01/21 11:34:34;;;;;;;19.17;7.47;;;4.30;99.90;;;;;;5030533;28;20056;-74
2022/01/21 11:37:03;;;;;;;24.13;7.57;;;4.30;99.90;;;;;;5030152;28;20041;-74
2022/01/21 11:39:32;;;;;;;18.35;7.57;;;4.30;99.90;;;;;;5046671;28;20060;-74
2022/01/21 11:42:03;;;;;;;20.85;7.65;;;4.20;99.90;;;;;;5046044;28;20047;-76
2022/01/21 11:44:36;;;;;;;22.48;7.32;;;4.20;99.90;;;;;;5045458;28;20052;-73
2022/01/21 11:47:28;;;;;;;25.30;7.43;;;4.20;99.90;;;;;;5043451;28;20055;-74
2022/01/21 11:49:59;;;;;;;20.58;7.90;;;4.20;99.90;;;;;;5046991;28;20056;-75
2022/01/21 11:52:27;;;;;;;29.10;7.72;;;4.20;99.90;;;;;;5044013;28;20045;-74
2022/01/21 11:54:55;;;;;;;23.48;8.23;;;4.20;99.90;;;;;;5027277;28;20053;-74
2022/01/21 11:57:30;;;;;;;24.45;8.15;;;4.20;99.90;;;;;;5038456;28;20049;-76
2022/01/21 12:02:29;;;;;;;;;;;4.20;99.90;;;;;;5047932;28;20056;-76
2022/01/21 12:05:02;;;;;;;19.08;7.25;;;4.20;99.90;;;;;;5046039;28;20296;-74
2022/01/21 12:07:44;;;;;;;21.80;8.68;;;4.20;99.90;;;;;;5046440;28;20049;-74
2022/01/21 12:10:14;;;;;;;22.20;8.13;;;4.20;99.90;;;;;;5046791;28;20520;-75
2022/01/21 12:12:49;;;;;;;29.73;8.40;;;4.30;99.90;;;;;;5039815;28;20045;-75
2022/01/21 12:15:22;;;;;;;26.15;7.85;;;4.20;99.90;;;;;;5042918;28;20048;-74
2022/01/21 12:18:04;;;;;;;23.65;7.70;;;4.30;99.90;;;;;;5047133;28;20385;-74
2022/01/21 12:20:33;;;;;;;20.92;7.82;;;4.30;99.90;;;;;;5036352;28;20057;-75
2022/01/21 12:23:12;;;;;;;27.95;8.07;;;4.30;99.90;;;;;;5026851;28;20049;-75
2022/01/21 12:26:17;;;;;;;26.58;7.85;;;4.40;99.90;;;;;;5025786;28;20081;-76
2022/01/21 12:28:58;;;;;;;29.30;7.25;;;4.30;99.90;;;;;;5039478;28;20746;-75
2022/01/21 12:31:52;;;;;;;25.90;7.78;;;4.30;99.90;;;;;;5040823;28;20049;-75
2022/01/21 12:34:27;;;;;;;23.70;7.93;;;4.30;99.90;;;;;;5042986;28;20049;-75
2022/01/21 12:37:06;;;;;;;26.35;8.18;;;4.40;99.90;;;;;;5043779;28;20057;-74
2022/01/21 12:39:46;;;;;;;20.23;6.80;;;4.40;99.90;;;;;;5043388;28;20385;-74
2022/01/21 12:42:27;;;;;;;27.20;7.20;;;4.40;99.90;;;;;;5031965;28;20397;-74
2022/01/21 12:45:17;;;;;;;23.70;7.15;;;4.40;99.90;;;;;;5041739;28;20044;-75
2022/01/21 12:47:48;;;;;;;24.27;7.38;;;4.40;99.90;;;;;;5042976;28;20048;-75
2022/01/21 12:50:58;;;;;;;24.48;7.45;;;4.40;99.90;;;;;;5040839;28;20045;-74
2022/01/21 12:53:44;;;;;;;23.63;6.70;;;4.40;99.90;;;;;;5046596;28;20049;-76
2022/01/21 12:56:12;;;;;;;22.75;6.68;;;4.40;99.90;;;;;;5044814;28;20049;-75
2022/01/21 12:58:44;;;;;;;23.80;6.70;;;4.50;99.90;;;;;;5044695;28;20057;-75
2022/01/21 13:01:13;;;;;;;21.05;6.45;;;4.50;99.90;;;;;;5044674;28;20049;-75
2022/01/21 13:04:04;;;;;;;17.33;6.45;;;4.50;99.90;;;;;;5044771;28;20562;-75
2022/01/21 13:06:44;;;;;;;29.58;6.88;;;4.50;99.90;;;;;;5011035;28;20049;-72
2022/01/21 13:09:18;;;;;;;20.73;6.90;;;4.50;99.90;;;;;;5044351;28;20062;-74
2022/01/21 13:11:55;;;;;;;15.63;6.13;;;4.60;99.90;;;;;;5053707;28;20041;-75
2022/01/21 13:14:26;;;;;;;25.15;6.55;;;4.50;99.90;;;;;;5044298;28;20131;-73
2022/01/21 13:17:14;;;;;;;19.60;6.00;;;4.50;99.90;;;;;;5043622;28;20493;-73
2022/01/21 13:19:46;;;;;;;22.60;5.97;;;4.60;99.90;;;;;;5021745;28;20053;-74
2022/01/21 13:22:17;;;;;;;23.92;6.10;;;4.60;99.90;;;;;;5026140;28;20045;-73
2022/01/21 13:24:57;;;;;;;22.05;6.10;;;4.60;99.90;;;;;;5044925;28;20037;-74
2022/01/21 13:27:26;;;;;;;19.05;5.20;;;4.60;99.90;;;;;;5041902;28;20041;-73
2022/01/21 13:30:07;;;;;;;21.70;5.85;;;4.80;99.90;;;;;;5020050;28;20044;-74
2022/01/21 13:32:35;;;;;;;18.80;5.68;;;4.70;99.90;;;;;;5031976;28;20064;-75
2022/01/21 13:35:18;;;;;;;14.43;5.40;;;4.70;99.90;;;;;;5038878;28;20072;-73
2022/01/21 13:38:06;;;;;;;18.77;5.38;;;4.70;99.90;;;;;;5030892;28;20042;-74
2022/01/21 13:40:41;;;;;;;17.38;5.35;;;4.70;99.90;;;;;;5026533;28;20501;-74
2022/01/21 13:43:17;;;;;;;17.83;4.93;;;4.80;99.90;;;;;;5043008;28;20484;-74
2022/01/21 13:46:00;;;;;;;13.57;4.97;;;4.80;99.90;;;;;;5038973;28;20049;-74
2022/01/21 13:48:31;;;;;;;17.02;5.15;;;4.80;99.90;;;;;;5038212;28;20567;-75
2022/01/21 13:51:01;;;;;;;20.67;5.00;;;4.70;99.90;;;;;;5046323;28;20488;-73
2022/01/21 13:53:37;;;;;;;23.08;5.45;;;4.80;99.90;;;;;;5044201;28;20057;-75
2022/01/21 13:56:08;;;;;;;21.75;5.13;;;4.90;99.90;;;;;;5038333;28;20080;-74
2022/01/21 13:58:38;;;;;;;17.45;5.40;;;4.80;99.90;;;;;;5038950;28;20053;-77
2022/01/21 14:01:09;;;;;;;17.17;5.13;;;4.80;99.90;;;;;;5040366;28;20049;-74
2022/01/21 14:03:40;;;;;;;18.15;5.38;;;4.90;99.90;;;;;;5049597;28;20040;-75
2022/01/21 14:06:20;;;;;;;24.27;5.60;;;4.80;99.90;;;;;;5065513;28;20049;-74
2022/01/21 14:08:50;;;;;;;18.60;5.60;;;4.80;99.90;;;;;;5050982;28;20056;-73
2022/01/21 14:11:35;;;;;;;17.83;5.20;;;4.80;99.90;;;;;;5049422;28;20056;-74